HVK weather

Hólmavík Airport
Hólmavík, Westfjords, Iceland

Public forecast

Using degrees Celsius for public forecast. Weather courtesy of forecast.io.

METAR (pilot weather report)

Closest report is Ísafjörður Airport, 41.2 nm (76.3 km) WNW. Retrieved 2019/02/17 12:00 UTC (39 seconds ago):

BIIS 171200Z 03016KT 9000 -SHSN FEW010 BKN020 OVC030 M02/M05 Q1004

TAF (pilot weather forecast)

Closest forecast is Akureyri Airport, 89.6 nm (166.0 km) E. Retrieved 2019/02/17 09:22 UTC (3 hours ago):

TAF BIAR 170720Z 1709/1809 03015G25KT 6000 -SN BKN010 OVC015 TX00/1712Z TNM01/1709Z TEMPO 1709/1716 2000 SN DRSN BKN008 BECMG 1716/1718 36017G30KT 0800 SN BLSN BKN004 PROB40 TEMPO 1723/1809 0500 VV002